sensor_id;sensor_type;location;lat;lon;timestamp;pressure;altitude;pressure_sealevel;temperature;humidity
12775;BME280;6451;42.630;23.382;2023-05-09T00:00:36;94640.31;;;17.81;100.00
12775;BME280;6451;42.630;23.382;2023-05-09T00:03:04;94657.75;;;18.20;100.00
12775;BME280;6451;42.630;23.382;2023-05-09T00:05:31;94658.94;;;18.19;100.00
12775;BME280;6451;42.630;23.382;2023-05-09T00:07:59;94646.28;;;18.00;100.00
12775;BME280;6451;42.630;23.382;2023-05-09T00:10:26;94595.78;;;17.43;100.00
12775;BME280;6451;42.630;23.382;2023-05-09T00:12:54;94640.47;;;18.20;100.00
12775;BME280;6451;42.630;23.382;2023-05-09T00:15:24;94622.47;;;18.33;100.00
12775;BME280;6451;42.630;23.382;2023-05-09T00:17:51;94653.13;;;18.49;100.00
12775;BME280;6451;42.630;23.382;2023-05-09T00:20:19;94620.31;;;17.84;100.00
12775;BME280;6451;42.630;23.382;2023-05-09T00:22:46;94661.19;;;17.96;100.00
12775;BME280;6451;42.630;23.382;2023-05-09T00:25:13;94651.94;;;18.43;100.00
12775;BME280;6451;42.630;23.382;2023-05-09T00:27:39;94639.44;;;18.71;100.00
12775;BME280;6451;42.630;23.382;2023-05-09T00:30:08;94650.78;;;18.62;100.00
12775;BME280;6451;42.630;23.382;2023-05-09T00:32:35;94648.88;;;18.66;100.00
12775;BME280;6451;42.630;23.382;2023-05-09T00:35:05;94635.44;;;18.47;100.00
12775;BME280;6451;42.630;23.382;2023-05-09T00:37:32;94638.88;;;18.15;100.00
12775;BME280;6451;42.630;23.382;2023-05-09T00:39:59;94638.56;;;18.34;100.00
12775;BME280;6451;42.630;23.382;2023-05-09T00:42:27;94649.56;;;18.45;100.00
12775;BME280;6451;42.630;23.382;2023-05-09T00:44:54;94644.75;;;18.06;100.00
12775;BME280;6451;42.630;23.382;2023-05-09T00:47:23;94621.06;;;17.73;100.00
12775;BME280;6451;42.630;23.382;2023-05-09T00:49:50;94609.31;;;17.73;100.00
12775;BME280;6451;42.630;23.382;2023-05-09T00:52:17;94652.06;;;17.77;100.00
12775;BME280;6451;42.630;23.382;2023-05-09T00:54:47;94640.72;;;17.79;100.00
12775;BME280;6451;42.630;23.382;2023-05-09T00:57:15;94631.97;;;17.66;100.00
12775;BME280;6451;42.630;23.382;2023-05-09T00:59:44;94603.84;;;17.14;100.00
12775;BME280;6451;42.630;23.382;2023-05-09T01:02:11;94658.25;;;17.64;100.00
12775;BME280;6451;42.630;23.382;2023-05-09T01:04:45;94635.88;;;17.62;100.00
12775;BME280;6451;42.630;23.382;2023-05-09T01:07:21;94651.66;;;17.72;100.00
12775;BME280;6451;42.630;23.382;2023-05-09T01:09:56;94549.56;;;16.83;100.00
12775;BME280;6451;42.630;23.382;2023-05-09T01:12:34;94563.19;;;17.27;100.00
12775;BME280;6451;42.630;23.382;2023-05-09T01:15:07;94636.94;;;18.12;100.00
12775;BME280;6451;42.630;23.382;2023-05-09T01:17:42;94527.78;;;17.04;100.00
12775;BME280;6451;42.630;23.382;2023-05-09T01:20:20;94635.19;;;17.75;100.00
12775;BME280;6451;42.630;23.382;2023-05-09T01:23:00;94654.16;;;18.02;100.00
12775;BME280;6451;42.630;23.382;2023-05-09T01:25:50;94648.00;;;18.41;100.00
12775;BME280;6451;42.630;23.382;2023-05-09T01:28:33;94644.41;;;18.19;100.00
12775;BME280;6451;42.630;23.382;2023-05-09T01:31:05;94651.94;;;18.50;100.00
12775;BME280;6451;42.630;23.382;2023-05-09T01:33:37;94656.75;;;18.75;100.00
12775;BME280;6451;42.630;23.382;2023-05-09T01:36:08;94636.25;;;18.51;100.00
12775;BME280;6451;42.630;23.382;2023-05-09T01:38:39;94649.28;;;18.82;100.00
12775;BME280;6451;42.630;23.382;2023-05-09T01:41:09;94650.47;;;18.96;100.00
12775;BME280;6451;42.630;23.382;2023-05-09T01:43:38;94649.28;;;19.29;100.00
12775;BME280;6451;42.630;23.382;2023-05-09T01:46:08;94639.88;;;18.98;100.00
12775;BME280;6451;42.630;23.382;2023-05-09T01:48:36;94644.59;;;19.04;100.00
12775;BME280;6451;42.630;23.382;2023-05-09T01:51:05;94636.31;;;18.72;100.00
12775;BME280;6451;42.630;23.382;2023-05-09T01:53:34;94651.66;;;18.95;100.00
12775;BME280;6451;42.630;23.382;2023-05-09T01:56:03;94636.72;;;18.81;100.00
12775;BME280;6451;42.630;23.382;2023-05-09T01:58:32;94651.66;;;18.87;100.00
12775;BME280;6451;42.630;23.382;2023-05-09T02:01:00;94648.13;;;19.08;100.00
12775;BME280;6451;42.630;23.382;2023-05-09T02:03:30;94651.22;;;18.78;100.00
12775;BME280;6451;42.630;23.382;2023-05-09T02:05:58;94641.41;;;18.77;100.00
12775;BME280;6451;42.630;23.382;2023-05-09T02:08:28;94646.50;;;18.68;100.00
12775;BME280;6451;42.630;23.382;2023-05-09T02:10:55;94649.25;;;18.68;100.00
12775;BME280;6451;42.630;23.382;2023-05-09T02:13:22;94651.25;;;18.71;100.00
12775;BME280;6451;42.630;23.382;2023-05-09T02:15:49;94630.78;;;18.65;100.00
12775;BME280;6451;42.630;23.382;2023-05-09T02:18:16;94622.09;;;18.45;100.00
12775;BME280;6451;42.630;23.382;2023-05-09T02:20:45;94640.19;;;18.57;100.00
12775;BME280;6451;42.630;23.382;2023-05-09T02:23:13;94657.94;;;18.88;100.00
12775;BME280;6451;42.630;23.382;2023-05-09T02:25:42;94635.53;;;18.82;100.00
12775;BME280;6451;42.630;23.382;2023-05-09T02:28:10;94638.69;;;18.84;100.00
12775;BME280;6451;42.630;23.382;2023-05-09T02:30:41;94626.50;;;18.78;100.00
12775;BME280;6451;42.630;23.382;2023-05-09T02:33:11;94648.91;;;18.87;100.00
12775;BME280;6451;42.630;23.382;2023-05-09T02:35:41;94641.78;;;18.65;100.00
12775;BME280;6451;42.630;23.382;2023-05-09T02:38:12;94641.75;;;18.58;100.00
12775;BME280;6451;42.630;23.382;2023-05-09T02:40:41;94644.88;;;18.49;100.00
12775;BME280;6451;42.630;23.382;2023-05-09T02:43:09;94603.97;;;18.12;100.00
12775;BME280;6451;42.630;23.382;2023-05-09T02:45:38;94638.19;;;18.43;100.00
12775;BME280;6451;42.630;23.382;2023-05-09T02:48:05;94651.09;;;18.28;100.00
12775;BME280;6451;42.630;23.382;2023-05-09T02:50:32;94609.34;;;17.84;100.00
12775;BME280;6451;42.630;23.382;2023-05-09T02:52:59;94658.94;;;18.23;100.00
12775;BME280;6451;42.630;23.382;2023-05-09T02:55:28;94652.69;;;18.33;100.00
12775;BME280;6451;42.630;23.382;2023-05-09T02:57:54;94636.59;;;18.39;100.00
12775;BME280;6451;42.630;23.382;2023-05-09T03:00:21;94641.72;;;18.37;100.00
12775;BME280;6451;42.630;23.382;2023-05-09T03:02:50;94655.06;;;18.42;100.00
12775;BME280;6451;42.630;23.382;2023-05-09T03:05:18;94658.59;;;18.35;100.00
12775;BME280;6451;42.630;23.382;2023-05-09T03:07:45;94640.53;;;18.34;100.00
12775;BME280;6451;42.630;23.382;2023-05-09T03:10:11;94654.25;;;18.30;100.00
12775;BME280;6451;42.630;23.382;2023-05-09T03:12:40;94663.19;;;18.02;100.00
12775;BME280;6451;42.630;23.382;2023-05-09T03:15:08;94639.31;;;18.31;100.00
12775;BME280;6451;42.630;23.382;2023-05-09T03:17:35;94639.53;;;17.80;100.00
12775;BME280;6451;42.630;23.382;2023-05-09T03:20:03;94675.00;;;18.17;100.00
12775;BME280;6451;42.630;23.382;2023-05-09T03:22:32;94664.81;;;18.18;100.00
12775;BME280;6451;42.630;23.382;2023-05-09T03:24:59;94691.13;;;18.26;100.00
12775;BME280;6451;42.630;23.382;2023-05-09T03:27:26;94671.06;;;18.15;100.00
12775;BME280;6451;42.630;23.382;2023-05-09T03:29:54;94692.28;;;18.18;100.00
12775;BME280;6451;42.630;23.382;2023-05-09T03:32:22;94634.56;;;17.38;100.00
12775;BME280;6451;42.630;23.382;2023-05-09T03:34:48;94631.59;;;17.64;100.00
12775;BME280;6451;42.630;23.382;2023-05-09T03:37:15;94702.63;;;17.73;100.00
12775;BME280;6451;42.630;23.382;2023-05-09T03:39:42;94701.59;;;17.95;100.00
12775;BME280;6451;42.630;23.382;2023-05-09T03:42:09;94692.47;;;17.81;100.00
12775;BME280;6451;42.630;23.382;2023-05-09T03:44:36;94703.41;;;17.73;100.00
12775;BME280;6451;42.630;23.382;2023-05-09T03:47:05;94618.34;;;17.15;100.00
12775;BME280;6451;42.630;23.382;2023-05-09T03:49:32;94710.69;;;17.55;100.00
12775;BME280;6451;42.630;23.382;2023-05-09T03:51:58;94688.84;;;17.14;100.00
12775;BME280;6451;42.630;23.382;2023-05-09T03:54:26;94702.63;;;17.76;100.00
12775;BME280;6451;42.630;23.382;2023-05-09T03:56:53;94707.16;;;18.13;100.00
12775;BME280;6451;42.630;23.382;2023-05-09T03:59:20;94706.78;;;18.18;100.00
12775;BME280;6451;42.630;23.382;2023-05-09T04:01:50;94611.06;;;16.85;100.00
12775;BME280;6451;42.630;23.382;2023-05-09T04:04:19;94713.19;;;17.71;100.00
12775;BME280;6451;42.630;23.382;2023-05-09T04:06:47;94693.34;;;17.40;100.00
12775;BME280;6451;42.630;23.382;2023-05-09T04:09:15;94701.97;;;17.97;100.00
12775;BME280;6451;42.630;23.382;2023-05-09T04:11:42;94710.53;;;17.82;100.00
12775;BME280;6451;42.630;23.382;2023-05-09T04:14:08;94709.00;;;17.88;100.00
12775;BME280;6451;42.630;23.382;2023-05-09T04:16:35;94704.91;;;17.64;100.00
12775;BME280;6451;42.630;23.382;2023-05-09T04:19:02;94693.22;;;17.77;100.00
12775;BME280;6451;42.630;23.382;2023-05-09T04:21:33;94700.31;;;17.82;100.00
12775;BME280;6451;42.630;23.382;2023-05-09T04:23:59;94701.34;;;18.25;100.00
12775;BME280;6451;42.630;23.382;2023-05-09T04:26:26;94710.06;;;18.49;100.00
12775;BME280;6451;42.630;23.382;2023-05-09T04:28:55;94698.44;;;18.00;100.00
12775;BME280;6451;42.630;23.382;2023-05-09T04:31:23;94714.47;;;17.88;100.00
12775;BME280;6451;42.630;23.382;2023-05-09T04:33:51;94714.09;;;17.93;100.00
12775;BME280;6451;42.630;23.382;2023-05-09T04:36:18;94712.38;;;18.47;100.00
12775;BME280;6451;42.630;23.382;2023-05-09T04:38:46;94684.28;;;19.03;100.00
12775;BME280;6451;42.630;23.382;2023-05-09T04:41:13;94711.69;;;18.68;100.00
12775;BME280;6451;42.630;23.382;2023-05-09T04:43:40;94689.75;;;18.93;100.00
12775;BME280;6451;42.630;23.382;2023-05-09T04:46:07;94699.19;;;18.88;100.00
12775;BME280;6451;42.630;23.382;2023-05-09T04:48:35;94706.25;;;18.82;100.00
12775;BME280;6451;42.630;23.382;2023-05-09T04:51:02;94706.63;;;18.80;100.00
12775;BME280;6451;42.630;23.382;2023-05-09T04:53:30;94712.19;;;19.27;100.00
12775;BME280;6451;42.630;23.382;2023-05-09T04:56:00;94721.22;;;18.95;100.00
12775;BME280;6451;42.630;23.382;2023-05-09T04:58:27;94713.75;;;19.13;100.00
12775;BME280;6451;42.630;23.382;2023-05-09T05:00:54;94711.81;;;19.25;100.00
12775;BME280;6451;42.630;23.382;2023-05-09T05:03:21;94713.00;;;18.08;100.00
12775;BME280;6451;42.630;23.382;2023-05-09T05:05:48;94706.91;;;18.54;100.00
12775;BME280;6451;42.630;23.382;2023-05-09T05:08:15;94694.06;;;18.72;100.00
12775;BME280;6451;42.630;23.382;2023-05-09T05:10:42;94697.47;;;18.48;100.00
12775;BME280;6451;42.630;23.382;2023-05-09T05:13:10;94708.63;;;18.91;100.00
12775;BME280;6451;42.630;23.382;2023-05-09T05:15:37;94714.78;;;18.55;100.00
12775;BME280;6451;42.630;23.382;2023-05-09T05:18:04;94701.13;;;18.80;100.00
12775;BME280;6451;42.630;23.382;2023-05-09T05:20:31;94709.69;;;18.57;100.00
12775;BME280;6451;42.630;23.382;2023-05-09T05:22:58;94719.56;;;18.69;100.00
12775;BME280;6451;42.630;23.382;2023-05-09T05:25:25;94712.88;;;18.70;100.00
12775;BME280;6451;42.630;23.382;2023-05-09T05:27:53;94710.53;;;18.76;100.00
12775;BME280;6451;42.630;23.382;2023-05-09T05:30:21;94723.00;;;18.55;100.00
12775;BME280;6451;42.630;23.382;2023-05-09T05:32:48;94710.03;;;18.42;100.00
12775;BME280;6451;42.630;23.382;2023-05-09T05:35:15;94724.94;;;18.41;100.00
12775;BME280;6451;42.630;23.382;2023-05-09T05:37:42;94710.06;;;18.63;100.00
12775;BME280;6451;42.630;23.382;2023-05-09T05:40:09;94662.53;;;18.45;100.00
12775;BME280;6451;42.630;23.382;2023-05-09T05:42:37;94722.31;;;18.76;100.00
12775;BME280;6451;42.630;23.382;2023-05-09T05:45:04;94707.28;;;18.45;100.00
12775;BME280;6451;42.630;23.382;2023-05-09T05:47:34;94718.66;;;18.44;100.00
12775;BME280;6451;42.630;23.382;2023-05-09T05:50:03;94728.03;;;18.25;100.00
12775;BME280;6451;42.630;23.382;2023-05-09T05:52:31;94705.28;;;18.39;100.00
12775;BME280;6451;42.630;23.382;2023-05-09T05:54:58;94724.97;;;18.51;100.00
12775;BME280;6451;42.630;23.382;2023-05-09T05:57:25;94709.38;;;18.73;100.00
12775;BME280;6451;42.630;23.382;2023-05-09T05:59:52;94717.47;;;18.34;100.00
12775;BME280;6451;42.630;23.382;2023-05-09T06:02:20;94736.59;;;18.16;100.00
12775;BME280;6451;42.630;23.382;2023-05-09T06:04:48;94724.78;;;18.09;100.00
12775;BME280;6451;42.630;23.382;2023-05-09T06:07:15;94718.25;;;18.34;100.00
12775;BME280;6451;42.630;23.382;2023-05-09T06:09:42;94708.13;;;18.60;100.00
12775;BME280;6451;42.630;23.382;2023-05-09T06:12:09;94712.56;;;18.97;100.00
12775;BME280;6451;42.630;23.382;2023-05-09T06:14:36;94732.06;;;18.59;100.00
12775;BME280;6451;42.630;23.382;2023-05-09T06:17:03;94714.09;;;18.83;100.00
12775;BME280;6451;42.630;23.382;2023-05-09T06:19:30;94718.28;;;18.42;100.00
12775;BME280;6451;42.630;23.382;2023-05-09T06:21:59;94719.22;;;18.88;100.00
12775;BME280;6451;42.630;23.382;2023-05-09T06:24:26;94724.38;;;19.22;100.00
12775;BME280;6451;42.630;23.382;2023-05-09T06:26:53;94716.50;;;19.31;100.00
12775;BME280;6451;42.630;23.382;2023-05-09T06:29:20;94723.59;;;19.29;100.00
12775;BME280;6451;42.630;23.382;2023-05-09T06:31:50;94724.31;;;18.83;100.00
12775;BME280;6451;42.630;23.382;2023-05-09T06:34:17;94712.53;;;18.82;100.00
12775;BME280;6451;42.630;23.382;2023-05-09T06:36:44;94732.59;;;19.01;100.00
12775;BME280;6451;42.630;23.382;2023-05-09T06:39:12;94718.06;;;19.04;100.00
12775;BME280;6451;42.630;23.382;2023-05-09T06:41:39;94696.84;;;19.15;100.00
12775;BME280;6451;42.630;23.382;2023-05-09T06:44:06;94727.53;;;19.45;100.00
12775;BME280;6451;42.630;23.382;2023-05-09T06:46:33;94730.66;;;19.55;100.00
12775;BME280;6451;42.630;23.382;2023-05-09T06:49:00;94716.13;;;19.51;100.00
12775;BME280;6451;42.630;23.382;2023-05-09T06:51:27;94719.66;;;19.55;100.00
12775;BME280;6451;42.630;23.382;2023-05-09T06:53:54;94709.44;;;19.37;100.00
12775;BME280;6451;42.630;23.382;2023-05-09T06:56:23;94712.19;;;19.34;100.00
12775;BME280;6451;42.630;23.382;2023-05-09T06:58:50;94709.47;;;19.66;100.00
12775;BME280;6451;42.630;23.382;2023-05-09T07:01:17;94711.03;;;19.63;100.00
12775;BME280;6451;42.630;23.382;2023-05-09T07:03:44;94718.06;;;19.54;100.00
12775;BME280;6451;42.630;23.382;2023-05-09T07:06:12;94712.22;;;19.59;100.00
12775;BME280;6451;42.630;23.382;2023-05-09T07:08:39;94714.16;;;19.83;100.00
12775;BME280;6451;42.630;23.382;2023-05-09T07:11:06;94711.78;;;19.89;98.79
12775;BME280;6451;42.630;23.382;2023-05-09T07:13:34;94688.19;;;19.52;99.12
12775;BME280;6451;42.630;23.382;2023-05-09T07:16:01;94719.66;;;19.76;96.80
12775;BME280;6451;42.630;23.382;2023-05-09T07:18:28;94710.22;;;19.74;96.91
12775;BME280;6451;42.630;23.382;2023-05-09T07:20:55;94685.88;;;19.58;94.65
12775;BME280;6451;42.630;23.382;2023-05-09T07:23:22;94697.25;;;19.70;91.37
12775;BME280;6451;42.630;23.382;2023-05-09T07:25:55;94710.63;;;19.26;95.50
12775;BME280;6451;42.630;23.382;2023-05-09T07:28:22;94714.09;;;20.12;92.12
12775;BME280;6451;42.630;23.382;2023-05-09T07:30:51;94714.44;;;20.24;88.17
12775;BME280;6451;42.630;23.382;2023-05-09T07:33:18;94711.44;;;19.58;90.67
12775;BME280;6451;42.630;23.382;2023-05-09T07:35:44;94687.81;;;19.39;93.54
12775;BME280;6451;42.630;23.382;2023-05-09T07:38:11;94701.91;;;20.09;92.00
12775;BME280;6451;42.630;23.382;2023-05-09T07:40:39;94724.63;;;20.38;90.46
12775;BME280;6451;42.630;23.382;2023-05-09T07:43:06;94721.53;;;20.25;91.02
12775;BME280;6451;42.630;23.382;2023-05-09T07:45:35;94723.09;;;20.26;92.09
12775;BME280;6451;42.630;23.382;2023-05-09T07:48:04;94712.00;;;20.51;90.33
12775;BME280;6451;42.630;23.382;2023-05-09T07:50:31;94726.19;;;20.43;87.94
12775;BME280;6451;42.630;23.382;2023-05-09T07:52:58;94720.28;;;20.37;88.84
12775;BME280;6451;42.630;23.382;2023-05-09T07:55:25;94716.28;;;20.63;87.23
12775;BME280;6451;42.630;23.382;2023-05-09T07:57:52;94726.66;;;21.07;84.98
12775;BME280;6451;42.630;23.382;2023-05-09T08:00:19;94735.38;;;19.97;89.80
12775;BME280;6451;42.630;23.382;2023-05-09T08:02:49;94723.94;;;19.98;90.55
12775;BME280;6451;42.630;23.382;2023-05-09T08:05:17;94718.91;;;19.65;91.71
12775;BME280;6451;42.630;23.382;2023-05-09T08:07:44;94726.72;;;19.91;94.84
12775;BME280;6451;42.630;23.382;2023-05-09T08:10:11;94708.56;;;20.19;93.32
12775;BME280;6451;42.630;23.382;2023-05-09T08:12:38;94704.06;;;20.64;92.70
12775;BME280;6451;42.630;23.382;2023-05-09T08:15:06;94723.56;;;20.00;94.79
12775;BME280;6451;42.630;23.382;2023-05-09T08:17:34;94714.53;;;19.96;93.28
12775;BME280;6451;42.630;23.382;2023-05-09T08:20:01;94710.22;;;19.63;94.23
12775;BME280;6451;42.630;23.382;2023-05-09T08:22:31;94690.97;;;19.38;92.25
12775;BME280;6451;42.630;23.382;2023-05-09T08:24:58;94679.94;;;19.74;92.46
12775;BME280;6451;42.630;23.382;2023-05-09T08:27:25;94723.19;;;19.94;91.73
12775;BME280;6451;42.630;23.382;2023-05-09T08:29:52;94711.66;;;20.35;87.83
12775;BME280;6451;42.630;23.382;2023-05-09T08:32:19;94724.63;;;20.31;88.35
12775;BME280;6451;42.630;23.382;2023-05-09T08:34:46;94722.72;;;20.14;88.38
12775;BME280;6451;42.630;23.382;2023-05-09T08:37:13;94719.59;;;20.12;88.19
12775;BME280;6451;42.630;23.382;2023-05-09T08:39:41;94720.84;;;19.79;91.44
12775;BME280;6451;42.630;23.382;2023-05-09T08:42:08;94704.72;;;19.74;90.58
12775;BME280;6451;42.630;23.382;2023-05-09T08:44:35;94721.19;;;20.06;90.20
12775;BME280;6451;42.630;23.382;2023-05-09T08:47:03;94712.81;;;20.48;87.49
12775;BME280;6451;42.630;23.382;2023-05-09T08:49:30;94719.19;;;20.17;87.76
12775;BME280;6451;42.630;23.382;2023-05-09T08:51:58;94722.03;;;19.81;87.74
12775;BME280;6451;42.630;23.382;2023-05-09T08:54:25;94700.03;;;19.60;87.92
12775;BME280;6451;42.630;23.382;2023-05-09T08:56:54;94715.75;;;19.56;88.51
12775;BME280;6451;42.630;23.382;2023-05-09T08:59:22;94697.66;;;19.37;90.12
12775;BME280;6451;42.630;23.382;2023-05-09T09:01:50;94726.72;;;19.20;92.32
12775;BME280;6451;42.630;23.382;2023-05-09T09:04:19;94698.03;;;19.03;93.36
12775;BME280;6451;42.630;23.382;2023-05-09T09:06:46;94711.78;;;19.07;91.23
12775;BME280;6451;42.630;23.382;2023-05-09T09:09:14;94716.88;;;18.87;95.70
12775;BME280;6451;42.630;23.382;2023-05-09T09:11:43;94725.13;;;19.01;95.55
12775;BME280;6451;42.630;23.382;2023-05-09T09:14:15;94717.22;;;18.78;96.04
12775;BME280;6451;42.630;23.382;2023-05-09T09:16:46;94724.66;;;18.67;97.05
12775;BME280;6451;42.630;23.382;2023-05-09T09:19:16;94718.06;;;19.07;96.60
12775;BME280;6451;42.630;23.382;2023-05-09T09:21:45;94701.09;;;18.70;97.46
12775;BME280;6451;42.630;23.382;2023-05-09T09:24:13;94724.38;;;19.26;95.99
12775;BME280;6451;42.630;23.382;2023-05-09T09:26:45;94721.63;;;19.19;97.07
12775;BME280;6451;42.630;23.382;2023-05-09T09:29:15;94698.81;;;19.07;95.08
12775;BME280;6451;42.630;23.382;2023-05-09T09:31:44;94721.94;;;18.78;97.02
12775;BME280;6451;42.630;23.382;2023-05-09T09:34:11;94709.63;;;18.43;98.49
12775;BME280;6451;42.630;23.382;2023-05-09T09:36:39;94728.88;;;18.47;99.92
12775;BME280;6451;42.630;23.382;2023-05-09T09:39:06;94724.72;;;18.88;99.19
12775;BME280;6451;42.630;23.382;2023-05-09T09:41:35;94719.91;;;18.60;100.00
12775;BME280;6451;42.630;23.382;2023-05-09T09:44:06;94728.97;;;18.68;100.00
12775;BME280;6451;42.630;23.382;2023-05-09T09:46:45;94704.66;;;18.74;99.74
12775;BME280;6451;42.630;23.382;2023-05-09T09:49:14;94727.03;;;18.76;99.10
12775;BME280;6451;42.630;23.382;2023-05-09T09:51:41;94727.06;;;18.94;99.63
12775;BME280;6451;42.630;23.382;2023-05-09T09:54:09;94719.16;;;18.67;100.00
12775;BME280;6451;42.630;23.382;2023-05-09T09:56:38;94727.44;;;18.85;100.00
12775;BME280;6451;42.630;23.382;2023-05-09T09:59:09;94730.25;;;18.96;100.00
12775;BME280;6451;42.630;23.382;2023-05-09T10:01:56;94722.41;;;19.19;99.86
12775;BME280;6451;42.630;23.382;2023-05-09T10:04:25;94684.25;;;18.71;100.00
12775;BME280;6451;42.630;23.382;2023-05-09T10:06:53;94708.63;;;18.87;100.00
12775;BME280;6451;42.630;23.382;2023-05-09T10:09:21;94723.59;;;19.36;100.00
12775;BME280;6451;42.630;23.382;2023-05-09T10:11:49;94726.72;;;19.13;100.00
12775;BME280;6451;42.630;23.382;2023-05-09T10:14:19;94703.53;;;19.28;100.00
12775;BME280;6451;42.630;23.382;2023-05-09T10:16:48;94722.00;;;18.96;100.00
12775;BME280;6451;42.630;23.382;2023-05-09T10:19:18;94703.13;;;18.87;100.00
12775;BME280;6451;42.630;23.382;2023-05-09T10:21:51;94696.41;;;18.77;100.00
12775;BME280;6451;42.630;23.382;2023-05-09T10:24:26;94711.75;;;18.93;100.00
12775;BME280;6451;42.630;23.382;2023-05-09T10:26:59;94637.88;;;18.73;100.00
12775;BME280;6451;42.630;23.382;2023-05-09T10:29:31;94711.00;;;19.38;100.00
12775;BME280;6451;42.630;23.382;2023-05-09T10:32:03;94712.16;;;19.16;100.00
12775;BME280;6451;42.630;23.382;2023-05-09T10:34:37;94716.00;;;18.65;100.00
12775;BME280;6451;42.630;23.382;2023-05-09T10:37:07;94712.56;;;19.00;100.00
12775;BME280;6451;42.630;23.382;2023-05-09T10:39:35;94700.94;;;18.27;100.00
12775;BME280;6451;42.630;23.382;2023-05-09T10:42:02;94702.34;;;17.92;100.00
12775;BME280;6451;42.630;23.382;2023-05-09T10:44:30;94714.38;;;18.53;100.00
12775;BME280;6451;42.630;23.382;2023-05-09T10:46:59;94686.75;;;18.14;100.00
12775;BME280;6451;42.630;23.382;2023-05-09T10:49:29;94712.81;;;18.63;100.00
12775;BME280;6451;42.630;23.382;2023-05-09T10:51:57;94721.03;;;18.42;100.00
12775;BME280;6451;42.630;23.382;2023-05-09T10:54:28;94717.81;;;18.32;100.00
12775;BME280;6451;42.630;23.382;2023-05-09T10:56:58;94723.13;;;18.84;100.00
12775;BME280;6451;42.630;23.382;2023-05-09T10:59:33;94714.00;;;18.62;100.00
12775;BME280;6451;42.630;23.382;2023-05-09T11:02:01;94712.88;;;18.67;100.00
12775;BME280;6451;42.630;23.382;2023-05-09T11:04:29;94707.69;;;18.51;100.00
12775;BME280;6451;42.630;23.382;2023-05-09T11:06:59;94719.78;;;18.32;100.00
12775;BME280;6451;42.630;23.382;2023-05-09T11:09:31;94618.38;;;17.81;100.00
12775;BME280;6451;42.630;23.382;2023-05-09T11:12:06;94709.00;;;18.85;100.00
12775;BME280;6451;42.630;23.382;2023-05-09T11:14:39;94685.03;;;18.82;100.00
12775;BME280;6451;42.630;23.382;2023-05-09T11:17:07;94692.91;;;19.16;100.00
12775;BME280;6451;42.630;23.382;2023-05-09T11:19:36;94689.41;;;19.33;99.74
12775;BME280;6451;42.630;23.382;2023-05-09T11:22:15;94704.72;;;19.52;98.89
12775;BME280;6451;42.630;23.382;2023-05-09T11:24:44;94707.06;;;19.39;99.60
12775;BME280;6451;42.630;23.382;2023-05-09T11:27:15;94705.13;;;19.51;98.27
12775;BME280;6451;42.630;23.382;2023-05-09T11:29:43;94714.94;;;19.34;99.65
12775;BME280;6451;42.630;23.382;2023-05-09T11:32:13;94709.81;;;19.00;100.00
12775;BME280;6451;42.630;23.382;2023-05-09T11:34:42;94548.84;;;17.62;100.00
12775;BME280;6451;42.630;23.382;2023-05-09T11:37:11;94710.97;;;18.88;100.00
12775;BME280;6451;42.630;23.382;2023-05-09T11:39:56;94715.25;;;18.68;100.00
12775;BME280;6451;42.630;23.382;2023-05-09T11:42:24;94717.31;;;19.17;100.00
12775;BME280;6451;42.630;23.382;2023-05-09T11:44:51;94714.41;;;18.60;100.00
12775;BME280;6451;42.630;23.382;2023-05-09T11:47:18;94694.75;;;18.55;100.00
12775;BME280;6451;42.630;23.382;2023-05-09T11:49:47;94723.97;;;19.06;100.00
12775;BME280;6451;42.630;23.382;2023-05-09T11:52:14;94721.97;;;18.88;98.92
12775;BME280;6451;42.630;23.382;2023-05-09T11:54:41;94713.97;;;18.41;100.00
12775;BME280;6451;42.630;23.382;2023-05-09T11:57:09;94718.31;;;18.52;100.00
12775;BME280;6451;42.630;23.382;2023-05-09T11:59:42;94724.28;;;18.72;100.00
12775;BME280;6451;42.630;23.382;2023-05-09T12:02:09;94705.03;;;18.76;98.14
12775;BME280;6451;42.630;23.382;2023-05-09T12:04:36;94706.19;;;18.68;100.00
12775;BME280;6451;42.630;23.382;2023-05-09T12:07:04;94708.94;;;18.64;100.00
12775;BME280;6451;42.630;23.382;2023-05-09T12:09:32;94704.91;;;18.33;100.00
12775;BME280;6451;42.630;23.382;2023-05-09T12:11:59;94718.31;;;18.52;100.00
12775;BME280;6451;42.630;23.382;2023-05-09T12:14:29;94706.28;;;17.98;100.00
12775;BME280;6451;42.630;23.382;2023-05-09T12:16:56;94668.69;;;18.06;100.00
12775;BME280;6451;42.630;23.382;2023-05-09T12:19:24;94710.66;;;18.03;100.00
12775;BME280;6451;42.630;23.382;2023-05-09T12:21:54;94716.97;;;18.14;100.00
12775;BME280;6451;42.630;23.382;2023-05-09T12:24:22;94715.63;;;17.80;100.00
12775;BME280;6451;42.630;23.382;2023-05-09T12:26:51;94697.22;;;17.87;100.00
12775;BME280;6451;42.630;23.382;2023-05-09T12:29:18;94712.13;;;17.90;100.00
12775;BME280;6451;42.630;23.382;2023-05-09T12:31:48;94717.25;;;17.40;100.00
12775;BME280;6451;42.630;23.382;2023-05-09T12:34:15;94723.50;;;17.33;100.00
12775;BME280;6451;42.630;23.382;2023-05-09T12:36:43;94709.06;;;16.99;100.00
12775;BME280;6451;42.630;23.382;2023-05-09T12:39:15;94720.97;;;17.17;100.00
12775;BME280;6451;42.630;23.382;2023-05-09T12:41:46;94706.56;;;16.83;100.00
12775;BME280;6451;42.630;23.382;2023-05-09T12:44:18;94707.16;;;16.66;100.00
12775;BME280;6451;42.630;23.382;2023-05-09T12:46:59;94724.72;;;16.95;100.00
12775;BME280;6451;42.630;23.382;2023-05-09T12:49:27;94717.63;;;16.90;100.00
12775;BME280;6451;42.630;23.382;2023-05-09T12:51:56;94629.50;;;16.10;100.00
12775;BME280;6451;42.630;23.382;2023-05-09T12:54:26;94715.22;;;16.85;100.00
12775;BME280;6451;42.630;23.382;2023-05-09T12:56:54;94701.94;;;16.87;100.00
12775;BME280;6451;42.630;23.382;2023-05-09T12:59:23;94698.09;;;16.58;100.00